| Date | Time | Temp. (oF) | Dew Point (oF) | Rel. Hum. (%) | Press. (in.) | Wind Dir. (deg.) | Wind Speed (mph) | Hourly Rainfall (i n.) |
|
|---|---|---|---|---|---|---|---|---|---|
| 1 | 07/30 | 24:00 | 74 | 64 | 73 | 29.91 | 330 | 0 | 0.00 |
| 2 | 07/29 | 23:00 | 76 | 63 | 66 | 29.96 | 330 | 0 | 0.00 |
| 3 | 07/29 | 22:00 | 77 | 63 | 63 | 29.93 | 330 | 0 | 0.00 |
| 4 | 07/29 | 21:00 | 79 | 62 | 58 | 29.89 | 330 | 2 | 0.00 |
| 5 | 07/29 | 20:00 | 82 | 64 | 55 | 29.88 | 330 | 2 | 0.00 |
| 6 | 07/29 | 19:00 | 84 | 61 | 47 | 29.88 | 330 | 2 | 0.00 |
| 7 | 07/29 | 18:00 | 89 | 59 | 38 | 29.90 | 310 | 4 | 0.00 |
| 8 | 07/29 | 17:00 | 90 | 58 | 35 | 29.91 | 350 | 4 | 0.00 |
| 9 | 07/29 | 16:00 | 90 | 59 | 37 | 29.91 | 290 | 6 | 0.00 |
| 10 | 07/29 | 15:00 | 89 | 60 | 39 | 29.91 | 270 | 9 | 0.00 |
| 11 | 07/29 | 14:00 | 89 | 60 | 39 | 29.92 | 310 | 9 | 0.00 |
| 12 | 07/29 | 13:00 | 87 | 61 | 43 | 29.93 | 320 | 12 | 0.00 |
| 13 | 07/29 | 12:00 | 83 | 61 | 49 | 29.93 | 290 | 10 | 0.00 |
| 14 | 07/29 | 11:00 | 80 | 63 | 57 | 29.94 | 10 | 2 | 0.00 |
| 15 | 07/29 | 10:00 | 75 | 64 | 69 | 29.96 | 140 | 4 | 0.00 |
| 16 | 07/29 | 09:00 | 72 | 63 | 76 | 29.98 | 140 | 0 | 0.00 |
| 17 | 07/29 | 08:00 | 70 | 63 | 81 | 29.98 | 280 | 0 | 0.00 |
| 18 | 04/24 | 17:56 | 69 | 62 | 81 | 29.98 | 330 | 4 | 0.00 |
| 19 | 04/24 | 17:55 | 69 | 62 | 81 | 29.97 | 330 | 4 | 0.00 |
| 20 | miss | miss | miss | miss | miss | miss | miss | miss | |
| 21 | 04/24 | 17:53 | 69 | 62 | 81 | 29.96 | 330 | 6 | 0.00 |
| 22 | miss | miss | miss | miss | miss | miss | miss | miss | |
| 23 | 04/24 | 17:51 | 69 | 62 | 81 | 29.95 | 350 | 1 | 0.00 |
| 24 | miss | miss | miss | miss | miss | miss | miss | miss | |
| 25 | 04/24 | 17:49 | 69 | 62 | 81 | 29.94 | 350 | 0 | 0.00 |
| 26 | miss | miss | miss | miss | miss | miss | miss | miss | |
| 27 | 04/24 | 17:49 | 69 | 62 | 81 | 29.94 | 350 | 0 | 0.00 |
| 28 | miss | miss | miss | miss | miss | miss | miss | miss | |
| 29 | 04/24 | 17:49 | 69 | 62 | 81 | 29.94 | 350 | 0 | 0.00 |
| 30 | miss | miss | miss | miss | miss | miss | miss | miss | |
| 31 | 04/24 | 17:49 | 69 | 62 | 81 | 29.94 | 350 | 0 | 0.00 |
| 32 | 04/24 | 17:00 | 70 | 63 | 79 | 29.96 | 270 | 0 | 0.00 |
| 33 | 04/24 | 16:00 | 70 | 62 | 77 | 30.01 | 270 | 1 | 0.00 |
| 34 | 04/24 | 15:00 | 69 | 61 | 78 | 29.96 | 270 | 2 | 0.00 |
| 35 | 04/24 | 14:00 | 69 | 61 | 77 | 29.95 | 270 | 0 | 0.00 |
| 36 | 04/24 | 13:00 | 71 | 61 | 71 | 29.96 | 270 | 1 | 0.00 |
| 37 | 04/24 | 12:00 | 72 | 60 | 67 | 29.97 | 270 | 0 | 0.00 |
| 38 | 04/24 | 11:00 | 72 | 60 | 68 | 29.99 | 270 | 0 | 0.00 |
| 39 | 04/24 | 10:00 | 74 | 59 | 61 | 29.99 | 270 | 0 | 0.00 |
| 40 | 04/24 | 09:00 | 75 | 59 | 59 | 30.03 | 270 | 0 | 0.00 |
| 41 | 04/24 | 08:00 | 77 | 58 | 53 | 30.03 | 270 | 2 | 0.00 |
| 42 | 04/24 | 07:00 | 79 | 59 | 51 | 30.03 | 270 | 1 | 0.00 |
| 43 | 04/24 | 06:00 | 81 | 61 | 51 | 30.03 | 330 | 10 | 0.00 |
| 44 | 04/24 | 05:00 | 81 | 62 | 54 | 30.04 | 230 | 4 | 0.00 |
| 45 | 04/24 | 04:00 | 89 | 63 | 43 | 30.03 | 270 | 9 | 0.00 |
| 46 | 04/24 | 03:00 | 92 | 63 | 39 | 30.02 | 290 | 7 | 0.00 |
| 47 | 04/24 | 02:00 | 93 | 60 | 34 | 30.05 | 270 | 6 | 0.00 |
| 48 | 04/24 | 25:59 | 92 | 59 | 34 | 30.05 | 270 | 10 | 0.00 |
| 49 | 04/24 | 25:58 | 93 | 60 | 35 | 30.05 | 270 | 9 | 0.00 |
| 50 | 04/24 | 25:57 | 93 | 60 | 35 | 30.05 | 270 | 2 | 0.00 |
| 51 | 04/24 | 25:56 | 93 | 60 | 35 | 30.05 | 270 | 2 | 0.00 |
| 52 | 04/24 | 25:55 | 93 | 60 | 35 | 30.05 | 280 | 10 | 0.00 |
| 53 | miss | miss | miss | miss | miss | miss | miss | miss | |
| 54 | 04/24 | 25:53 | 93 | 60 | 34 | 30.05 | 270 | 7 | 0.00 |
| 55 | miss | miss | miss | miss | miss | miss | miss | miss | |
| 56 | 04/24 | 25:51 | 93 | 60 | 34 | 30.05 | 290 | 10 | 0.00 |
| 57 | miss | miss | miss | miss | miss | miss | miss | miss | |
| 58 | 04/24 | 25:49 | 93 | 60 | 34 | 30.05 | 310 | 6 | 0.00 |
| 59 | miss | miss | miss | miss | miss | miss | miss | miss | |
| 60 | 04/24 | 25:47 | 93 | 60 | 34 | 30.05 | 270 | 7 | 0.00 |
| 61 | miss | miss | miss | miss | miss | miss | miss | miss | |
| 62 | 04/24 | 25:45 | 93 | 60 | 34 | 30.05 | 270 | 7 | 0.00 |
| 63 | miss | miss | miss | miss | miss | miss | miss | miss | |
| 64 | 04/24 | 25:43 | 93 | 60 | 34 | 30.05 | 260 | 9 | 0.00 |
| 65 | miss | miss | miss | miss | miss | miss | miss | miss | |
| 66 | 04/24 | 25:41 | 93 | 60 | 34 | 30.05 | 10 | 2 | 0.00 |
| 67 | miss | miss | miss | miss | miss | miss | miss | miss | |
| 68 | 04/24 | 25:39 | 93 | 60 | 34 | 30.05 | 240 | 7 | 0.00 |
| 69 | miss | miss | miss | miss | miss | miss | miss | miss | |
| 70 | 04/24 | 25:37 | 93 | 60 | 34 | 30.05 | 310 | 6 | 0.00 |
| 71 | miss | miss | miss | miss | miss | miss | miss | miss | |
| 72 | 04/24 | 25:35 | 93 | 60 | 34 | 30.05 | 270 | 4 | 0.00 |
| 73 | miss | miss | miss | miss | miss | miss | miss | miss | |
| 74 | 04/24 | 25:33 | 93 | 60 | 34 | 30.05 | 290 | 4 | 0.00 |
| 75 | miss | miss | miss | miss | miss | miss | miss | miss | |
| 76 | 04/24 | 25:31 | 93 | 60 | 34 | 30.05 | 270 | 7 | 0.00 |
| 77 | miss | miss | miss | miss | miss | miss | miss | miss | |
| 78 | 04/24 | 25:29 | 93 | 60 | 34 | 30.05 | 130 | 2 | 0.00 |
| 79 | miss | miss | miss | miss | miss | miss | miss | miss | |
| 80 | 04/24 | 25:27 | 93 | 60 | 34 | 30.05 | 130 | 1 | 0.00 |
| 81 | miss | miss | miss | miss | miss | miss | miss | miss | |
| 82 | 04/24 | 25:25 | 93 | 60 | 34 | 30.05 | 130 | 6 | 0.00 |
| 83 | miss | miss | miss | miss | miss | miss | miss | miss | |
| 84 | 04/24 | 25:23 | 93 | 60 | 34 | 30.04 | 260 | 7 | 0.00 |
| 85 | miss | miss | miss | miss | miss | miss | miss | miss | |
| 86 | 04/24 | 25:21 | 93 | 60 | 34 | 30.04 | 290 | 6 | 0.00 |
| 87 | miss | miss | miss | miss | miss | miss | miss | miss | |
| 88 | 04/24 | 25:19 | 93 | 60 | 34 | 30.04 | 310 | 4 | 0.00 |
| 89 | miss | miss | miss | miss | miss | miss | miss | miss | |
| 90 | 04/24 | 25:17 | 93 | 59 | 33 | 30.04 | 310 | 2 | 0.00 |
| 91 | miss | miss | miss | miss | miss | miss | miss | miss | |
| 92 | 04/24 | 02:17 | 94 | 60 | 33 | 30.06 | 290 | 11 | 0.00 |
| 93 | miss | miss | miss | miss | miss | miss | miss | miss | |
| 94 | 04/24 | 02:17 | 94 | 60 | 33 | 30.06 | 290 | 11 | 0.00 |
| 95 | 04/24 | 02:00 | 94 | 60 | 33 | 30.06 | 270 | 14 | 0.00 |
| 96 | 04/24 | 25:59 | 94 | 60 | 33 | 30.06 | 270 | 10 | 0.00 |
| 97 | 04/24 | 25:58 | 94 | 60 | 33 | 30.06 | 270 | 10 | 0.00 |
| 98 | 04/24 | 25:57 | 93 | 59 | 33 | 30.06 | 270 | 11 | 0.00 |
| 99 | 04/24 | 25:56 | 93 | 59 | 33 | 30.05 | 30 | 2 | 0.00 |
| 100 | 04/24 | 25:55 | 94 | 60 | 33 | 30.05 | 260 | 7 | 0.00 |
| 101 | miss | miss | miss | miss | miss | miss | miss | miss | |
| 102 | 04/24 | 25:53 | 94 | 60 | 33 | 30.05 | 330 | 2 | 0.00 |
| 103 | miss | miss | miss | miss | miss | miss | miss | miss | |
| 104 | 04/24 | 25:51 | 93 | 59 | 33 | 30.05 | 310 | 7 | 0.00 |
| 105 | miss | miss | miss | miss | miss | miss | miss | miss | |
| 106 | 04/24 | 25:49 | 94 | 60 | 33 | 30.05 | 330 | 7 | 0.00 |
| 107 | miss | miss | miss | miss | miss | miss | miss | miss | |
| 108 | 04/24 | 25:47 | 93 | 59 | 33 | 30.05 | 290 | 10 | 0.00 |
| 109 | miss | miss | miss | miss | miss | miss | miss | miss | |
| 110 | 04/24 | 25:45 | 93 | 59 | 33 | 30.05 | 290 | 10 | 0.00 |
| 111 | miss | miss | miss | miss | miss | miss | miss | miss | |
| 112 | 04/24 | 25:43 | 93 | 60 | 34 | 30.05 | 280 | 11 | 0.00 |
| 113 | miss | miss | miss | miss | miss | miss | miss | miss | |
| 114 | 04/24 | 25:41 | 93 | 60 | 34 | 30.05 | 330 | 6 | 0.00 |
| 115 | miss | miss | miss | miss | miss | miss | miss | miss | |
| 116 | 04/24 | 25:39 | 93 | 60 | 34 | 30.05 | 270 | 10 | 0.00 |
| 117 | miss | miss | miss | miss | miss | miss | miss | miss | |
| 118 | 04/24 | 25:37 | 93 | 59 | 33 | 30.04 | 310 | 9 | 0.00 |
| 119 | miss | miss | miss | miss | miss | miss | miss | miss | |
| 120 | 04/24 | 25:35 | 93 | 60 | 34 | 30.04 | 170 | 6 | 0.00 |
| 121 | miss | miss | miss | miss | miss | miss | miss | miss | |
| 122 | 04/24 | 25:33 | 93 | 60 | 34 | 30.04 | 230 | 7 | 0.00 |
| 123 | miss | miss | miss | miss | miss | miss | miss | miss | |
| 124 | 04/24 | 25:31 | 93 | 60 | 34 | 30.03 | 270 | 7 | 0.00 |
| 125 | miss | miss | miss | miss | miss | miss | miss | miss | |
| 126 | 04/24 | 25:29 | 93 | 60 | 34 | 30.02 | 270 | 7 | 0.00 |
| 127 | miss | miss | miss | miss | miss | miss | miss | miss | |
| 128 | 04/24 | 25:27 | 93 | 60 | 34 | 30.02 | 300 | 4 | 0.00 |
| 129 | miss | miss | miss | miss | miss | miss | miss | miss | |
| 130 | 04/24 | 25:25 | 93 | 60 | 35 | 30.01 | 310 | 6 | 0.00 |
| 131 | miss | miss | miss | miss | miss | miss | miss | miss | |
| 132 | 04/24 | 25:23 | 93 | 60 | 35 | 30.00 | 290 | 15 | 0.00 |
| 133 | miss | miss | miss | miss | miss | miss | miss | miss | |
| 134 | 07/28 | 13:40 | 92 | 60 | 35 | 30.06 | 270 | 4 | 0.00 |
| 135 | miss | miss | miss | miss | miss | miss | miss | miss | |
| 136 | 07/28 | 13:38 | 92 | 60 | 35 | 30.06 | 310 | 9 | 0.00 |
| 137 | miss | miss | miss | miss | miss | miss | miss | miss | |
| 138 | 07/28 | 13:36 | 92 | 60 | 35 | 30.06 | 350 | 7 | 0.00 |
| 139 | miss | miss | miss | miss | miss | miss | miss | miss | |
| 140 | 07/28 | 13:34 | 93 | 60 | 34 | 30.06 | 330 | 7 | 0.00 |
| 141 | miss | miss | miss | miss | miss | miss | miss | miss | |
| 142 | 07/28 | 13:32 | 92 | 60 | 36 | 30.06 | 250 | 10 | 0.00 |
| 143 | miss | miss | miss | miss | miss | miss | miss | miss | |
| 144 | 07/28 | 13:30 | 92 | 60 | 35 | 30.06 | 290 | 4 | 0.00 |
| 145 | miss | miss | miss | miss | miss | miss | miss | miss | |
| 146 | 07/28 | 13:29 | 92 | 60 | 35 | 30.06 | 330 | 6 | 0.00 |
| 147 | miss | miss | miss | miss | miss | miss | miss | miss | |
| 148 | 07/28 | 13:29 | 92 | 60 | 35 | 30.06 | 330 | 6 | 0.00 |
| 149 | miss | miss | miss | miss | miss | miss | miss | miss | |
| 150 | 07/28 | 13:29 | 92 | 60 | 35 | 30.06 | 330 | 6 | 0.00 |
| 151 | miss | miss | miss | miss | miss | miss | miss | miss | |
| 152 | 07/28 | 13:29 | 92 | 60 | 35 | 30.06 | 330 | 6 | 0.00 |
| 153 | miss | miss | miss | miss | miss | miss | miss | miss | |
| 154 | 07/28 | 13:29 | 92 | 60 | 35 | 30.06 | 330 | 6 | 0.00 |
| 155 | miss | miss | miss | miss | miss | miss | miss | miss | |
| 156 | 07/28 | 13:00 | 91 | 60 | 36 | 30.07 | 280 | 9 | 0.00 |
| 157 | 07/28 | 12:00 | 90 | 60 | 38 | 30.11 | 270 | 6 | 0.00 |
| 158 | 07/28 | 11:00 | 85 | 61 | 46 | 30.12 | 290 | 6 | 0.00 |
| 159 | 07/28 | 10:00 | 82 | 63 | 53 | 30.13 | 300 | 1 | 0.00 |
| 160 | 07/28 | 09:00 | 81 | 66 | 61 | 30.13 | 280 | 0 | 0.00 |
| 161 | 07/28 | 08:00 | 75 | 66 | 75 | 30.11 | 290 | 0 | 0.00 |
| 162 | 07/28 | 07:00 | 72 | 64 | 77 | 30.09 | 290 | 0 | 0.00 |
| 163 | 07/28 | 06:00 | 69 | 63 | 84 | 30.15 | 290 | 1 | 0.00 |
| 164 | 07/28 | 05:00 | 70 | 64 | 84 | 30.10 | 290 | 0 | 0.00 |
| 165 | 07/28 | 04:00 | 70 | 64 | 83 | 30.06 | 290 | 0 | 0.00 |
| 166 | 07/28 | 03:00 | 72 | 65 | 79 | 30.07 | 290 | 0 | 0.00 |
| 167 | 07/28 | 02:00 | 74 | 65 | 75 | 30.06 | 290 | 0 | 0.00 |
| 168 | 07/28 | 01:00 | 75 | 65 | 72 | 30.07 | 290 | 0 | 0.00 |
| 169 | 07/28 | 24:00 | 78 | 64 | 64 | 30.07 | 290 | 0 | 0.00 |
| 170 | 07/27 | 23:00 | 79 | 64 | 61 | 30.07 | 290 | 0 | 0.00 |